createdAt,value
2023-05-01T00:01:53.591Z,7.10
2023-05-01T00:04:21.868Z,6.38
2023-05-01T00:06:48.753Z,7.00
2023-05-01T00:09:15.494Z,7.95
2023-05-01T00:11:42.304Z,5.82
2023-05-01T00:14:09.044Z,7.80
2023-05-01T00:16:36.553Z,9.45
2023-05-01T00:19:04.626Z,7.95
2023-05-01T00:21:31.317Z,8.30
2023-05-01T00:23:58.681Z,7.00
2023-05-01T00:26:29.685Z,6.97
2023-05-01T00:28:56.306Z,6.57
2023-05-01T00:31:24.873Z,7.32
2023-05-01T00:33:51.595Z,7.13
2023-05-01T00:36:18.271Z,8.27
2023-05-01T00:38:46.338Z,8.65
2023-05-01T00:41:13.069Z,6.78
2023-05-01T00:43:39.670Z,9.18
2023-05-01T00:46:07.154Z,6.47
2023-05-01T00:48:34.034Z,6.60
2023-05-01T00:51:01.087Z,8.73
2023-05-01T00:53:28.240Z,6.72
2023-05-01T00:55:56.430Z,8.20
2023-05-01T00:58:23.130Z,6.47
2023-05-01T01:00:49.925Z,6.10
2023-05-01T01:03:16.579Z,12.02
2023-05-01T01:05:46.881Z,6.65
2023-05-01T01:08:25.570Z,6.60
2023-05-01T01:11:13.894Z,6.38
2023-05-01T01:13:49.245Z,10.93
2023-05-01T01:16:41.630Z,7.72
2023-05-01T01:19:29.104Z,6.45
2023-05-01T01:21:58.773Z,7.82
2023-05-01T01:24:48.548Z,6.50
2023-05-01T01:27:55.695Z,6.75
2023-05-01T01:30:58.213Z,6.00
2023-05-01T01:33:48.937Z,10.38
2023-05-01T01:36:21.391Z,6.60
2023-05-01T01:38:55.324Z,8.07
2023-05-01T01:41:30.240Z,7.78
2023-05-01T01:44:03.104Z,6.72
2023-05-01T01:46:29.816Z,8.27
2023-05-01T01:48:56.487Z,8.18
2023-05-01T01:51:23.464Z,11.57
2023-05-01T01:53:53.698Z,6.82
2023-05-01T01:56:20.789Z,8.73
2023-05-01T01:58:47.721Z,9.07
2023-05-01T02:01:14.706Z,6.78
2023-05-01T02:03:41.596Z,8.13
2023-05-01T02:06:08.782Z,7.15
2023-05-01T02:08:35.577Z,7.63
2023-05-01T02:11:02.438Z,7.55
2023-05-01T02:13:29.834Z,6.82
2023-05-01T02:15:58.258Z,8.90
2023-05-01T02:18:27.346Z,6.75
2023-05-01T02:20:54.103Z,6.07
2023-05-01T02:23:21.087Z,9.02
2023-05-01T02:25:48.545Z,11.75
2023-05-01T02:28:16.219Z,7.10
2023-05-01T02:30:42.832Z,7.10
2023-05-01T02:33:09.783Z,8.35
2023-05-01T02:35:44.502Z,7.32
2023-05-01T02:38:12.856Z,7.50
2023-05-01T02:40:39.876Z,7.22
2023-05-01T02:43:09.184Z,7.47
2023-05-01T02:45:38.326Z,9.93
2023-05-01T02:48:06.518Z,7.88
2023-05-01T02:50:33.574Z,7.53
2023-05-01T02:53:00.562Z,6.85
2023-05-01T02:55:27.300Z,7.93
2023-05-01T02:57:57.432Z,8.23
2023-05-01T03:00:24.108Z,7.30
2023-05-01T03:02:50.761Z,7.78
2023-05-01T03:05:17.550Z,8.70
2023-05-01T03:07:44.580Z,8.25
2023-05-01T03:10:11.376Z,9.07
2023-05-01T03:12:38.118Z,6.63
2023-05-01T03:15:05.804Z,6.07
2023-05-01T03:17:32.463Z,6.65
2023-05-01T03:19:59.079Z,6.43
2023-05-01T03:22:28.676Z,8.02
2023-05-01T03:24:55.334Z,8.40
2023-05-01T03:27:22.039Z,6.88
2023-05-01T03:29:49.744Z,7.03
2023-05-01T03:32:17.763Z,7.75
2023-05-01T03:34:45.260Z,8.55
2023-05-01T03:37:12.024Z,6.78
2023-05-01T03:39:38.667Z,6.22
2023-05-01T03:42:05.715Z,6.65
2023-05-01T03:44:32.651Z,9.75
2023-05-01T03:46:59.414Z,8.68
2023-05-01T03:49:26.095Z,9.30
2023-05-01T03:51:52.858Z,7.57
2023-05-01T03:54:19.620Z,7.53
2023-05-01T03:56:46.431Z,8.07
2023-05-01T03:59:14.198Z,8.10
2023-05-01T04:01:41.002Z,7.22
2023-05-01T04:04:08.038Z,7.47
2023-05-01T04:06:35.301Z,7.55
2023-05-01T04:09:02.556Z,9.23
2023-05-01T04:11:29.192Z,8.82
2023-05-01T04:13:55.892Z,8.75
2023-05-01T04:16:22.696Z,6.93
2023-05-01T04:18:49.385Z,7.88
2023-05-01T04:21:17.622Z,8.98
2023-05-01T04:23:44.432Z,7.85
2023-05-01T04:26:11.029Z,8.20
2023-05-01T04:28:37.951Z,8.30
2023-05-01T04:31:04.679Z,7.30
2023-05-01T04:33:31.387Z,9.55
2023-05-01T04:35:58.020Z,8.15
2023-05-01T04:38:24.854Z,8.05
2023-05-01T04:40:52.539Z,9.57
2023-05-01T04:43:19.244Z,11.82
2023-05-01T04:45:46.004Z,8.60
2023-05-01T04:48:12.680Z,8.10
2023-05-01T04:50:39.378Z,7.88
2023-05-01T04:53:06.092Z,11.45
2023-05-01T04:55:32.780Z,7.40
2023-05-01T04:57:59.578Z,8.80
2023-05-01T05:00:28.042Z,7.35
2023-05-01T05:02:55.096Z,6.50
2023-05-01T05:05:21.766Z,9.95
2023-05-01T05:07:48.825Z,7.25
2023-05-01T05:10:15.638Z,9.93
2023-05-01T05:12:42.200Z,7.60
2023-05-01T05:15:09.296Z,7.72
2023-05-01T05:17:36.032Z,8.57
2023-05-01T05:20:02.925Z,8.50
2023-05-01T05:22:29.588Z,6.78
2023-05-01T05:24:56.744Z,7.20
2023-05-01T05:27:23.631Z,10.95
2023-05-01T05:29:50.662Z,7.80
2023-05-01T05:32:17.468Z,7.90
2023-05-01T05:34:44.183Z,7.32
2023-05-01T05:37:11.720Z,11.02
2023-05-01T05:39:38.361Z,7.78
2023-05-01T05:42:05.527Z,8.90
2023-05-01T05:44:33.058Z,9.18
2023-05-01T05:47:06.580Z,6.38
2023-05-01T05:49:33.251Z,7.38
2023-05-01T05:51:59.840Z,7.28
2023-05-01T05:54:26.581Z,9.43
2023-05-01T05:56:53.183Z,8.32
2023-05-01T05:59:19.801Z,5.80
2023-05-01T06:01:47.142Z,6.22
2023-05-01T06:04:15.038Z,5.93
2023-05-01T06:06:41.776Z,5.30
2023-05-01T06:09:08.789Z,8.40
2023-05-01T06:11:35.903Z,6.72
2023-05-01T06:14:02.761Z,6.55
2023-05-01T06:16:29.673Z,6.72
2023-05-01T06:18:56.989Z,6.22
2023-05-01T06:21:23.620Z,7.70
2023-05-01T06:23:50.633Z,8.23
2023-05-01T06:26:17.315Z,6.90
2023-05-01T06:28:44.067Z,7.68
2023-05-01T06:31:11.005Z,8.68
2023-05-01T06:33:37.737Z,6.18
2023-05-01T06:36:04.725Z,6.15
2023-05-01T06:38:32.901Z,7.20
2023-05-01T06:40:59.654Z,8.75
2023-05-01T06:43:30.566Z,7.53
2023-05-01T06:45:57.457Z,6.20
2023-05-01T06:48:24.121Z,7.40
2023-05-01T06:50:51.047Z,7.60
2023-05-01T06:53:17.718Z,7.47
2023-05-01T06:55:44.325Z,6.47
2023-05-01T06:58:22.560Z,7.00
2023-05-01T07:00:51.051Z,6.63
2023-05-01T07:03:17.949Z,7.93
2023-05-01T07:05:44.704Z,7.78
2023-05-01T07:08:11.337Z,8.23
2023-05-01T07:10:39.877Z,9.02
2023-05-01T07:13:09.098Z,7.20
2023-05-01T07:15:35.760Z,7.53
2023-05-01T07:18:03.219Z,6.75
2023-05-01T07:20:30.170Z,10.07
2023-05-01T07:22:56.857Z,5.43
2023-05-01T07:25:23.632Z,7.97
2023-05-01T07:27:50.448Z,7.07
2023-05-01T07:30:17.097Z,10.32
2023-05-01T07:32:43.827Z,7.45
2023-05-01T07:35:10.557Z,10.13
2023-05-01T07:37:37.300Z,6.13
2023-05-01T07:40:04.301Z,7.53
2023-05-01T07:42:31.201Z,6.03
2023-05-01T07:44:58.089Z,6.55
2023-05-01T07:47:24.957Z,7.10
2023-05-01T07:49:51.580Z,7.22
2023-05-01T07:52:18.303Z,8.10
2023-05-01T07:54:49.823Z,8.25
2023-05-01T07:57:16.669Z,8.10
2023-05-01T07:59:43.312Z,6.20
2023-05-01T08:02:10.304Z,9.57
2023-05-01T08:04:37.158Z,7.88
2023-05-01T08:07:04.219Z,6.10
2023-05-01T08:09:31.184Z,8.18
2023-05-01T08:11:58.199Z,6.10
2023-05-01T08:14:25.101Z,6.03
2023-05-01T08:16:55.163Z,7.40
2023-05-01T08:19:22.035Z,7.00
2023-05-01T08:21:48.728Z,9.98
2023-05-01T08:24:15.420Z,7.75
2023-05-01T08:26:42.073Z,8.75
2023-05-01T08:29:08.748Z,9.00
2023-05-01T08:31:37.679Z,7.95
2023-05-01T08:34:04.962Z,8.50
2023-05-01T08:36:32.531Z,7.78
2023-05-01T08:38:59.354Z,6.90
2023-05-01T08:41:26.623Z,8.73
2023-05-01T08:43:53.336Z,8.00
2023-05-01T08:46:24.766Z,8.00
2023-05-01T08:48:55.945Z,8.60
2023-05-01T08:51:23.023Z,7.82
2023-05-01T08:53:52.093Z,7.97
2023-05-01T08:56:19.845Z,9.80
2023-05-01T08:58:46.518Z,11.90
2023-05-01T09:01:15.521Z,7.75
2023-05-01T09:03:44.491Z,10.70
2023-05-01T09:06:11.609Z,8.45
2023-05-01T09:08:38.397Z,9.85
2023-05-01T09:11:05.052Z,9.32
2023-05-01T09:13:31.832Z,8.40
2023-05-01T09:15:58.556Z,12.45
2023-05-01T09:18:25.368Z,8.88
2023-05-01T09:20:52.072Z,8.68
2023-05-01T09:23:20.199Z,8.85
2023-05-01T09:25:46.986Z,10.15
2023-05-01T09:28:13.716Z,11.10
2023-05-01T09:30:40.467Z,9.50
2023-05-01T09:33:15.397Z,10.82
2023-05-01T09:35:58.936Z,9.23
2023-05-01T09:38:27.228Z,11.25
2023-05-01T09:40:57.200Z,10.02
2023-05-01T09:43:26.773Z,11.10
2023-05-01T09:46:04.961Z,13.50
2023-05-01T09:48:35.077Z,12.98
2023-05-01T09:51:04.709Z,12.43
2023-05-01T09:53:39.089Z,14.98
2023-05-01T09:56:06.583Z,14.07
2023-05-01T09:58:33.267Z,13.50
2023-05-01T10:01:00.359Z,17.17
2023-05-01T10:03:28.047Z,12.68
2023-05-01T10:05:57.070Z,14.30
2023-05-01T10:08:24.132Z,14.65
2023-05-01T10:11:05.871Z,11.57
2023-05-01T10:13:32.640Z,14.07
2023-05-01T10:16:01.408Z,13.52
2023-05-01T10:18:28.498Z,14.82
2023-05-01T10:20:55.242Z,13.65
2023-05-01T10:23:22.526Z,17.75
2023-05-01T10:25:49.446Z,23.98
2023-05-01T10:28:16.138Z,19.38
2023-05-01T10:30:42.757Z,15.02
2023-05-01T10:33:09.390Z,13.63
2023-05-01T10:35:38.259Z,17.08
2023-05-01T10:38:06.379Z,15.63
2023-05-01T10:51:26.593Z,17.33
2023-05-01T10:56:51.445Z,16.15
2023-05-01T10:59:18.084Z,21.88
2023-05-01T11:01:48.505Z,17.80
2023-05-01T11:09:54.194Z,17.98
2023-05-01T11:12:56.817Z,18.20
2023-05-01T11:15:28.067Z,18.25
2023-05-01T11:17:55.926Z,20.27
2023-05-01T11:23:03.452Z,17.00
2023-05-01T11:25:30.969Z,18.63
2023-05-01T11:28:01.737Z,19.58
2023-05-01T11:30:43.424Z,18.83
2023-05-01T11:33:11.141Z,20.70
2023-05-01T11:35:39.149Z,16.63
2023-05-01T11:38:06.025Z,21.17
2023-05-01T11:40:34.874Z,16.90
2023-05-01T11:43:09.037Z,18.85
2023-05-01T11:45:36.868Z,17.55
2023-05-01T11:48:04.933Z,19.25
2023-05-01T11:50:32.772Z,17.65
2023-05-01T11:52:59.493Z,17.90
2023-05-01T11:55:34.027Z,16.38
2023-05-01T11:58:00.798Z,16.35
2023-05-01T12:00:29.481Z,18.98
2023-05-01T12:03:03.221Z,16.92
2023-05-01T12:05:31.152Z,14.60
2023-05-01T12:10:55.966Z,16.67
2023-05-01T12:13:22.928Z,13.83
2023-05-01T12:15:52.413Z,18.92
2023-05-01T12:18:19.402Z,15.32
2023-05-01T12:20:47.808Z,15.35
2023-05-01T12:23:16.821Z,12.35
2023-05-01T12:25:44.954Z,14.63
2023-05-01T12:28:14.164Z,14.05
2023-05-01T12:30:41.655Z,13.98
2023-05-01T12:33:13.335Z,15.05
2023-05-01T12:35:41.046Z,14.57
2023-05-01T12:38:12.732Z,17.33
2023-05-01T12:40:40.448Z,14.30
2023-05-01T12:43:07.192Z,14.73
2023-05-01T12:45:41.401Z,15.30
2023-05-01T12:48:15.151Z,13.90
2023-05-01T12:50:42.060Z,13.60
2023-05-01T12:53:09.844Z,16.27
2023-05-01T12:55:45.759Z,15.45
2023-05-01T12:58:12.787Z,13.90
2023-05-01T13:00:46.734Z,14.10
2023-05-01T13:03:13.928Z,15.93
2023-05-01T13:06:01.582Z,18.30
2023-05-01T13:08:33.187Z,15.98
2023-05-01T13:11:01.707Z,14.25
2023-05-01T13:13:31.687Z,11.80
2023-05-01T13:16:12.288Z,13.75
2023-05-01T13:21:24.010Z,12.32
2023-05-01T13:23:54.780Z,11.35
2023-05-01T13:26:31.510Z,10.45
2023-05-01T13:28:58.705Z,11.45
2023-05-01T13:31:25.666Z,11.50
2023-05-01T13:33:53.461Z,11.90
2023-05-01T13:36:25.970Z,11.40
2023-05-01T13:38:55.683Z,12.82
2023-05-01T13:41:23.338Z,11.80
2023-05-01T13:43:52.819Z,13.15
2023-05-01T13:46:22.425Z,10.77
2023-05-01T13:48:49.598Z,17.90
2023-05-01T13:51:24.971Z,14.07
2023-05-01T13:53:53.245Z,11.55
2023-05-01T13:56:21.561Z,11.43
2023-05-01T13:58:48.493Z,11.52
2023-05-01T14:01:16.955Z,12.35
2023-05-01T14:03:43.772Z,16.65
2023-05-01T14:06:13.336Z,13.88
2023-05-01T14:08:40.053Z,13.23
2023-05-01T14:11:07.916Z,13.90
2023-05-01T14:13:35.919Z,12.52
2023-05-01T14:16:07.171Z,14.65
2023-05-01T14:18:35.144Z,11.85
2023-05-01T14:21:01.881Z,12.65
2023-05-01T14:23:29.299Z,11.07
2023-05-01T14:25:56.154Z,12.43
2023-05-01T14:28:23.661Z,11.77
2023-05-01T14:30:51.227Z,13.10
2023-05-01T14:33:18.144Z,10.73
2023-05-01T14:35:49.841Z,10.25
2023-05-01T14:38:17.314Z,11.05
2023-05-01T14:40:44.431Z,10.13
2023-05-01T14:43:16.228Z,13.20
2023-05-01T14:45:43.403Z,10.70
2023-05-01T14:48:10.956Z,10.68
2023-05-01T14:50:37.756Z,11.38
2023-05-01T14:53:04.510Z,10.00
2023-05-01T14:55:34.740Z,10.38
2023-05-01T14:58:01.883Z,10.65
2023-05-01T15:00:28.505Z,9.55
2023-05-01T15:02:55.604Z,9.95
2023-05-01T15:05:23.824Z,9.20
2023-05-01T15:07:51.018Z,8.63
2023-05-01T15:10:17.733Z,10.55
2023-05-01T15:12:44.371Z,8.23
2023-05-01T15:15:11.355Z,7.72
2023-05-01T15:17:38.076Z,9.40
2023-05-01T15:20:05.732Z,10.60
2023-05-01T15:22:32.541Z,8.68
2023-05-01T15:24:59.453Z,9.23
2023-05-01T15:27:26.508Z,9.85
2023-05-01T15:29:53.154Z,11.50
2023-05-01T15:32:19.982Z,14.95
2023-05-01T15:34:46.768Z,9.38
2023-05-01T15:37:13.767Z,8.70
2023-05-01T15:39:40.600Z,10.63
2023-05-01T15:42:07.445Z,11.25
2023-05-01T15:44:34.097Z,10.27
2023-05-01T15:47:00.681Z,9.13
2023-05-01T15:49:27.400Z,9.07
2023-05-01T15:51:54.917Z,10.38
2023-05-01T15:54:21.676Z,10.60
2023-05-01T15:56:48.384Z,10.63
2023-05-01T15:59:15.156Z,13.73
2023-05-01T16:01:42.351Z,13.70
2023-05-01T16:04:09.165Z,14.30
2023-05-01T16:06:35.991Z,14.52
2023-05-01T16:09:02.847Z,13.98
2023-05-01T16:11:30.397Z,14.40
2023-05-01T16:13:57.240Z,13.93
2023-05-01T16:16:25.516Z,22.52
2023-05-01T16:18:55.710Z,16.67
2023-05-01T16:21:23.167Z,10.95
2023-05-01T16:23:50.934Z,9.85
2023-05-01T16:26:22.999Z,10.55
2023-05-01T16:28:50.117Z,9.68
2023-05-01T16:31:27.211Z,10.30
2023-05-01T16:33:54.700Z,13.88
2023-05-01T16:36:21.684Z,15.52
2023-05-01T16:38:48.406Z,15.77
2023-05-01T16:41:17.175Z,11.05
2023-05-01T16:43:45.039Z,12.88
2023-05-01T16:46:13.384Z,11.38
2023-05-01T16:48:40.375Z,12.35
2023-05-01T16:51:08.311Z,15.07
2023-05-01T16:53:34.964Z,14.27
2023-05-01T16:56:01.672Z,14.52
2023-05-01T16:58:28.413Z,13.85
2023-05-01T17:00:55.756Z,14.65
2023-05-01T17:03:22.412Z,13.27
2023-05-01T17:05:49.046Z,14.20
2023-05-01T17:08:15.921Z,16.70
2023-05-01T17:10:44.652Z,14.90
2023-05-01T17:13:13.580Z,18.48
2023-05-01T17:15:40.258Z,14.18
2023-05-01T17:18:06.938Z,12.90
2023-05-01T17:20:33.844Z,15.57
2023-05-01T17:23:00.496Z,14.27
2023-05-01T17:25:27.148Z,15.25
2023-05-01T17:27:54.742Z,13.93
2023-05-01T17:30:21.452Z,15.40
2023-05-01T17:32:48.215Z,16.98
2023-05-01T17:35:16.573Z,14.48
2023-05-01T17:37:43.393Z,19.50
2023-05-01T17:40:11.515Z,18.60
2023-05-01T17:42:38.217Z,23.05
2023-05-01T17:45:07.385Z,17.50
2023-05-01T17:47:34.551Z,20.58
2023-05-01T17:50:04.446Z,17.13
2023-05-01T17:52:31.340Z,19.10
2023-05-01T17:54:58.286Z,19.05
2023-05-01T17:57:25.059Z,22.55
2023-05-01T17:59:51.772Z,16.88
2023-05-01T18:02:18.491Z,18.15
2023-05-01T18:04:46.842Z,15.98
2023-05-01T18:07:13.569Z,14.63
2023-05-01T18:09:40.393Z,15.73
2023-05-01T18:12:07.086Z,17.02
2023-05-01T18:14:33.786Z,21.48
2023-05-01T18:17:00.685Z,17.58
2023-05-01T18:19:27.474Z,17.58
2023-05-01T18:21:54.181Z,18.35
2023-05-01T18:24:20.880Z,21.23
2023-05-01T18:26:47.507Z,18.10
2023-05-01T18:29:14.215Z,15.68
2023-05-01T18:31:40.900Z,16.75
2023-05-01T18:34:10.011Z,17.13
2023-05-01T18:36:36.684Z,14.95
2023-05-01T18:39:03.351Z,15.05
2023-05-01T18:41:29.949Z,19.73
2023-05-01T18:43:58.100Z,13.60
2023-05-01T18:46:25.050Z,12.07
2023-05-01T18:48:51.734Z,12.00
2023-05-01T18:51:18.449Z,10.93
2023-05-01T18:53:45.051Z,11.13
2023-05-01T18:56:11.764Z,9.20
2023-05-01T18:58:39.773Z,9.25
2023-05-01T19:01:06.821Z,7.70
2023-05-01T19:03:33.541Z,7.65
2023-05-01T19:06:00.413Z,6.75
2023-05-01T19:08:27.110Z,10.13
2023-05-01T19:10:53.812Z,7.57
2023-05-01T19:13:20.654Z,7.65
2023-05-01T19:15:47.497Z,6.70
2023-05-01T19:18:14.965Z,7.65
2023-05-01T19:20:41.623Z,8.85
2023-05-01T19:23:08.288Z,6.53
2023-05-01T19:25:35.862Z,5.80
2023-05-01T19:28:02.484Z,7.07
2023-05-01T19:30:29.523Z,6.30
2023-05-01T19:32:57.824Z,9.25
2023-05-01T19:35:24.598Z,5.65
2023-05-01T19:37:55.423Z,6.43
2023-05-01T19:40:22.232Z,7.10
2023-05-01T19:42:48.928Z,7.70
2023-05-01T19:45:17.729Z,8.20
2023-05-01T19:47:45.275Z,7.38
2023-05-01T19:50:12.044Z,6.05
2023-05-01T19:52:39.049Z,5.80
2023-05-01T19:55:06.066Z,5.90
2023-05-01T19:57:33.742Z,6.93
2023-05-01T20:00:00.986Z,6.30
2023-05-01T20:02:28.459Z,5.93
2023-05-01T20:04:55.181Z,5.18
2023-05-01T20:07:22.012Z,3.55
2023-05-01T20:09:48.805Z,3.45
2023-05-01T20:12:15.637Z,4.95
2023-05-01T20:14:42.317Z,4.47
2023-05-01T20:17:09.361Z,5.07
2023-05-01T20:19:39.312Z,4.88
2023-05-01T20:22:06.331Z,7.60
2023-05-01T20:24:33.054Z,5.07
2023-05-01T20:27:00.106Z,5.53
2023-05-01T20:29:26.895Z,5.82
2023-05-01T20:31:53.526Z,5.85
2023-05-01T20:34:20.660Z,4.38
2023-05-01T20:36:47.324Z,8.63
2023-05-01T20:39:14.098Z,7.95
2023-05-01T20:41:40.713Z,5.35
2023-05-01T20:44:08.798Z,5.53
2023-05-01T20:46:35.401Z,6.20
2023-05-01T20:49:02.100Z,6.13
2023-05-01T20:51:29.048Z,8.63
2023-05-01T20:53:55.710Z,5.88
2023-05-01T20:56:23.600Z,4.78
2023-05-01T20:58:50.279Z,6.40
2023-05-01T21:01:16.883Z,5.00
2023-05-01T21:03:43.625Z,4.65
2023-05-01T21:06:10.464Z,4.80
2023-05-01T21:08:37.128Z,4.82
2023-05-01T21:11:03.801Z,3.42
2023-05-01T21:13:31.504Z,4.07
2023-05-01T21:15:58.132Z,5.93
2023-05-01T21:18:24.828Z,3.65
2023-05-01T21:20:51.470Z,5.45
2023-05-01T21:23:18.125Z,3.75
2023-05-01T21:25:44.850Z,3.83
2023-05-01T21:28:12.693Z,3.47
2023-05-01T21:30:39.521Z,3.40
2023-05-01T21:33:07.512Z,3.17
2023-05-01T21:35:34.343Z,3.92
2023-05-01T21:38:00.992Z,3.60
2023-05-01T21:40:27.689Z,3.85
2023-05-01T21:42:54.573Z,4.07
2023-05-01T21:45:21.210Z,2.92
2023-05-01T21:47:49.683Z,5.20
2023-05-01T21:50:18.502Z,3.28
2023-05-01T21:52:46.293Z,2.97
2023-05-01T21:55:26.821Z,3.53
2023-05-01T21:57:53.437Z,2.70
2023-05-01T22:00:20.661Z,3.33
2023-05-01T22:02:48.592Z,2.58
2023-05-01T22:05:16.746Z,3.28
2023-05-01T22:07:44.954Z,4.45
2023-05-01T22:10:15.661Z,3.40
2023-05-01T22:12:42.399Z,3.75
2023-05-01T22:15:10.111Z,4.00
2023-05-01T22:17:37.298Z,3.45
2023-05-01T22:20:07.028Z,3.33
2023-05-01T22:22:34.413Z,3.88
2023-05-01T22:25:01.302Z,2.92
2023-05-01T22:27:28.031Z,6.50
2023-05-01T22:29:54.719Z,3.33
2023-05-01T22:32:21.773Z,3.38
2023-05-01T22:34:48.691Z,3.70
2023-05-01T22:37:15.717Z,4.07
2023-05-01T22:39:42.513Z,4.45
2023-05-01T22:42:09.159Z,3.72
2023-05-01T22:44:36.469Z,6.10
2023-05-01T22:47:03.385Z,6.60
2023-05-01T22:49:31.943Z,4.95
2023-05-01T22:51:58.797Z,5.03
2023-05-01T22:54:25.716Z,5.50
2023-05-01T22:56:52.369Z,3.67
2023-05-01T22:59:19.236Z,4.82
2023-05-01T23:01:46.240Z,5.03
2023-05-01T23:04:13.910Z,5.30
2023-05-01T23:06:41.006Z,5.45
2023-05-01T23:09:08.424Z,5.97
2023-05-01T23:11:35.204Z,5.13
2023-05-01T23:14:02.066Z,5.22
2023-05-01T23:16:30.206Z,5.07
2023-05-01T23:18:56.944Z,5.40
2023-05-01T23:21:23.592Z,5.18
2023-05-01T23:23:50.611Z,5.05
2023-05-01T23:26:24.284Z,5.28
2023-05-01T23:28:50.918Z,5.05
2023-05-01T23:31:18.707Z,4.60
2023-05-01T23:33:45.383Z,4.35
2023-05-01T23:36:12.988Z,4.97
2023-05-01T23:38:40.344Z,4.50
2023-05-01T23:41:07.917Z,4.97
2023-05-01T23:43:34.973Z,4.10
2023-05-01T23:46:02.668Z,4.80
2023-05-01T23:48:29.287Z,4.70
2023-05-01T23:50:55.936Z,3.83
2023-05-01T23:53:22.513Z,4.07
2023-05-01T23:55:49.152Z,5.03
2023-05-01T23:58:16.713Z,5.13
